createdAt,value
2022-09-24T00:00:58.362Z,1.15
2022-09-24T00:03:26.817Z,0.88
2022-09-24T00:05:53.350Z,0.90
2022-09-24T00:08:20.519Z,1.13
2022-09-24T00:10:48.910Z,1.15
2022-09-24T00:13:17.858Z,0.93
2022-09-24T00:15:49.203Z,1.35
2022-09-24T00:18:17.927Z,1.75
2022-09-24T00:20:45.013Z,1.77
2022-09-24T00:23:11.918Z,2.88
2022-09-24T00:26:05.215Z,2.15
2022-09-24T00:28:32.826Z,1.90
2022-09-24T00:31:04.247Z,1.88
2022-09-24T00:33:32.662Z,1.40
2022-09-24T00:36:02.110Z,1.23
2022-09-24T00:38:29.660Z,1.23
2022-09-24T00:40:56.132Z,1.45
2022-09-24T00:43:25.193Z,1.55
2022-09-24T00:46:02.364Z,1.52
2022-09-24T00:48:28.905Z,0.95
2022-09-24T00:50:55.517Z,1.30
2022-09-24T00:53:28.975Z,0.90
2022-09-24T00:55:56.618Z,0.80
2022-09-24T00:58:23.697Z,1.42
2022-09-24T01:00:54.127Z,1.65
2022-09-24T01:03:26.648Z,1.52
2022-09-24T01:05:53.255Z,1.60
2022-09-24T01:08:20.994Z,1.88
2022-09-24T01:11:01.092Z,2.80
2022-09-24T01:13:33.661Z,3.10
2022-09-24T01:16:28.291Z,2.60
2022-09-24T01:21:46.098Z,2.22
2022-09-24T01:24:29.094Z,1.77
2022-09-24T01:27:02.583Z,2.03
2022-09-24T01:29:37.511Z,2.35
2022-09-24T01:32:08.374Z,2.35
2022-09-24T01:34:45.150Z,2.00
2022-09-24T01:37:15.770Z,1.75
2022-09-24T01:39:45.393Z,1.95
2022-09-24T01:42:13.488Z,2.00
2022-09-24T01:44:44.283Z,2.10
2022-09-24T01:47:18.380Z,1.77
2022-09-24T01:49:44.946Z,1.70
2022-09-24T01:52:16.152Z,1.33
2022-09-24T01:54:50.297Z,1.13
2022-09-24T01:57:27.828Z,1.60
2022-09-24T02:00:02.105Z,1.75
2022-09-24T02:02:45.258Z,1.42
2022-09-24T02:05:18.339Z,1.33
2022-09-24T02:08:08.405Z,1.40
2022-09-24T02:10:42.477Z,1.35
2022-09-24T02:15:41.864Z,1.10
2022-09-24T02:18:13.865Z,1.80
2022-09-24T02:20:43.369Z,1.40
2022-09-24T02:23:11.724Z,1.60
2022-09-24T02:25:44.254Z,1.45
2022-09-24T02:28:10.863Z,1.23
2022-09-24T02:30:43.927Z,1.00
2022-09-24T02:33:32.871Z,1.60
2022-09-24T02:35:59.598Z,2.13
2022-09-24T02:38:26.154Z,1.60
2022-09-24T02:40:53.906Z,1.42
2022-09-24T02:43:21.164Z,1.70
2022-09-24T02:45:47.674Z,2.22
2022-09-24T02:48:14.133Z,2.15
2022-09-24T02:50:40.609Z,1.67
2022-09-24T02:53:07.120Z,1.50
2022-09-24T02:55:33.638Z,1.52
2022-09-24T02:58:00.189Z,1.30
2022-09-24T03:00:26.627Z,1.30
2022-09-24T03:02:53.681Z,1.88
2022-09-24T03:05:21.246Z,1.98
2022-09-24T03:07:47.713Z,1.70
2022-09-24T03:10:14.212Z,1.35
2022-09-24T03:12:42.138Z,1.20
2022-09-24T03:15:08.914Z,1.60
2022-09-24T03:17:35.372Z,2.20
2022-09-24T03:20:02.160Z,2.10
2022-09-24T03:22:28.650Z,1.80
2022-09-24T03:24:55.140Z,1.52
2022-09-24T03:27:21.680Z,1.80
2022-09-24T03:30:06.785Z,1.88
2022-09-24T03:32:33.873Z,2.22
2022-09-24T03:35:01.309Z,1.83
2022-09-24T03:37:27.866Z,1.20
2022-09-24T03:39:54.395Z,1.42
2022-09-24T03:42:20.837Z,1.20
2022-09-24T03:44:47.303Z,1.25
2022-09-24T03:47:13.818Z,2.00
2022-09-24T03:49:40.363Z,1.70
2022-09-24T03:52:06.847Z,1.80
2022-09-24T03:54:33.384Z,1.73
2022-09-24T03:56:59.815Z,1.40
2022-09-24T03:59:26.305Z,1.15
2022-09-24T04:01:52.924Z,1.13
2022-09-24T04:04:19.720Z,1.23
2022-09-24T04:06:46.218Z,1.40
2022-09-24T04:09:12.704Z,1.35
2022-09-24T04:11:39.387Z,1.20
2022-09-24T04:14:06.010Z,1.50
2022-09-24T04:16:32.817Z,1.40
2022-09-24T04:18:59.644Z,1.80
2022-09-24T04:21:26.258Z,2.38
2022-09-24T04:23:52.765Z,2.38
2022-09-24T04:26:20.162Z,2.28
2022-09-24T04:28:46.576Z,2.40
2022-09-24T04:31:13.103Z,1.98
2022-09-24T04:33:40.656Z,1.60
2022-09-24T04:36:07.167Z,1.70
2022-09-24T04:38:33.653Z,1.70
2022-09-24T04:41:09.449Z,1.88
2022-09-24T04:43:36.953Z,1.90
2022-09-24T04:46:04.705Z,2.30
2022-09-24T04:48:31.990Z,1.63
2022-09-24T04:50:58.545Z,1.75
2022-09-24T04:53:25.072Z,2.00
2022-09-24T04:55:51.591Z,9.50
2022-09-24T04:58:18.850Z,4.65
2022-09-24T05:00:45.330Z,2.70
2022-09-24T05:03:11.832Z,2.30
2022-09-24T05:05:38.633Z,1.98
2022-09-24T05:08:05.114Z,1.77
2022-09-24T05:10:33.069Z,1.50
2022-09-24T05:13:00.213Z,1.30
2022-09-24T05:15:26.948Z,1.50
2022-09-24T05:17:53.409Z,2.17
2022-09-24T05:20:20.262Z,1.60
2022-09-24T05:22:49.224Z,1.80
2022-09-24T05:25:17.399Z,1.50
2022-09-24T05:27:53.464Z,1.55
2022-09-24T05:30:22.409Z,1.60
2022-09-24T05:32:52.897Z,1.45
2022-09-24T05:35:24.121Z,1.60
2022-09-24T05:37:53.389Z,1.40
2022-09-24T05:40:38.982Z,1.60
2022-09-24T05:43:05.577Z,1.50
2022-09-24T05:45:32.683Z,1.17
2022-09-24T05:48:00.113Z,1.90
2022-09-24T05:50:27.153Z,6.50
2022-09-24T05:52:53.605Z,3.88
2022-09-24T05:55:20.052Z,3.10
2022-09-24T05:57:46.498Z,2.22
2022-09-24T06:00:13.059Z,2.17
2022-09-24T06:02:39.708Z,1.98
2022-09-24T06:05:06.944Z,1.80
2022-09-24T06:07:33.432Z,1.70
2022-09-24T06:10:00.781Z,1.63
2022-09-24T06:12:27.602Z,1.50
2022-09-24T06:14:54.084Z,1.40
2022-09-24T06:17:21.073Z,1.15
2022-09-24T06:19:47.689Z,1.30
2022-09-24T06:22:14.855Z,1.50
2022-09-24T06:24:41.602Z,1.60
2022-09-24T06:27:08.140Z,1.70
2022-09-24T06:29:35.391Z,1.45
2022-09-24T06:32:02.171Z,1.90
2022-09-24T06:34:28.713Z,1.90
2022-09-24T06:36:56.960Z,1.85
2022-09-24T06:39:24.429Z,1.40
2022-09-24T06:41:51.505Z,1.98
2022-09-24T06:44:19.180Z,2.25
2022-09-24T06:46:46.266Z,2.30
2022-09-24T06:49:12.770Z,2.00
2022-09-24T06:51:39.340Z,2.00
2022-09-24T06:54:06.180Z,3.60
2022-09-24T06:56:32.747Z,3.20
2022-09-24T06:58:59.201Z,3.05
2022-09-24T07:01:25.702Z,2.50
2022-09-24T07:03:52.185Z,1.70
2022-09-24T07:06:47.710Z,1.42
2022-09-24T07:09:14.504Z,1.92
2022-09-24T07:11:41.877Z,2.13
2022-09-24T07:14:08.306Z,1.75
2022-09-24T07:16:34.847Z,1.25
2022-09-24T07:19:01.579Z,2.13
2022-09-24T07:21:28.920Z,1.60
2022-09-24T07:23:58.553Z,2.03
2022-09-24T07:26:25.245Z,1.90
2022-09-24T07:28:51.766Z,1.50
2022-09-24T07:31:18.265Z,1.50
2022-09-24T07:33:44.774Z,1.60
2022-09-24T07:36:11.221Z,1.70
2022-09-24T07:38:37.721Z,1.48
2022-09-24T07:41:06.055Z,1.30
2022-09-24T07:43:33.231Z,1.45
2022-09-24T07:45:59.713Z,1.27
2022-09-24T07:48:26.266Z,1.27
2022-09-24T07:50:52.897Z,1.42
2022-09-24T07:53:21.838Z,2.08
2022-09-24T07:55:49.365Z,1.75
2022-09-24T07:58:15.810Z,1.50
2022-09-24T08:00:42.482Z,1.83
2022-09-24T08:03:08.982Z,2.22
2022-09-24T08:05:35.524Z,1.90
2022-09-24T08:08:04.623Z,1.52
2022-09-24T08:10:31.169Z,1.30
2022-09-24T08:13:01.545Z,1.17
2022-09-24T08:15:27.982Z,1.15
2022-09-24T08:17:54.563Z,1.40
2022-09-24T08:20:23.006Z,1.60
2022-09-24T08:22:49.462Z,1.73
2022-09-24T08:25:16.017Z,1.65
2022-09-24T08:27:42.629Z,1.10
2022-09-24T08:30:09.886Z,0.90
2022-09-24T08:32:36.419Z,1.17
2022-09-24T08:35:03.036Z,1.70
2022-09-24T08:37:29.832Z,2.22
2022-09-24T08:39:56.335Z,1.80
2022-09-24T08:42:45.597Z,1.10
2022-09-24T08:45:30.661Z,0.90
2022-09-24T08:48:04.189Z,1.30
2022-09-24T08:50:35.178Z,1.38
2022-09-24T08:53:14.639Z,1.85
2022-09-24T08:55:46.353Z,2.05
2022-09-24T08:58:29.081Z,1.70
2022-09-24T09:01:06.562Z,1.20
2022-09-24T09:03:39.531Z,0.98
2022-09-24T09:06:32.932Z,1.30
2022-09-24T09:09:09.654Z,8.10
2022-09-24T09:11:41.005Z,6.05
2022-09-24T09:14:31.279Z,3.70
2022-09-24T09:17:06.867Z,2.90
2022-09-24T09:19:35.317Z,2.80
2022-09-24T09:22:13.103Z,2.45
2022-09-24T09:24:50.821Z,2.10
2022-09-24T09:27:19.850Z,2.42
2022-09-24T09:29:57.166Z,2.50
2022-09-24T09:32:42.877Z,2.38
2022-09-24T09:35:21.942Z,1.88
2022-09-24T09:38:04.768Z,2.30
2022-09-24T09:40:48.255Z,2.40
2022-09-24T09:43:14.956Z,2.00
2022-09-24T09:45:52.120Z,2.33
2022-09-24T09:48:21.549Z,2.80
2022-09-24T09:50:50.680Z,2.47
2022-09-24T09:53:29.805Z,2.08
2022-09-24T09:56:08.052Z,1.65
2022-09-24T09:58:37.832Z,1.75
2022-09-24T10:01:10.953Z,1.70
2022-09-24T10:03:46.743Z,2.05
2022-09-24T10:06:35.141Z,1.70
2022-09-24T10:09:13.179Z,1.42
2022-09-24T10:11:41.113Z,2.05
2022-09-24T10:14:14.888Z,2.17
2022-09-24T10:19:22.399Z,2.17
2022-09-24T10:21:50.750Z,2.15
2022-09-24T10:24:21.419Z,2.20
2022-09-24T10:26:49.312Z,2.10
2022-09-24T10:29:43.933Z,2.35
2022-09-24T10:32:20.554Z,2.13
2022-09-24T10:34:58.573Z,1.80
2022-09-24T10:37:25.681Z,2.28
2022-09-24T10:40:24.230Z,2.20
2022-09-24T10:43:05.476Z,2.50
2022-09-24T10:45:56.750Z,2.25
2022-09-24T10:48:26.971Z,1.65
2022-09-24T10:51:13.223Z,1.48
2022-09-24T10:53:58.686Z,2.20
2022-09-24T10:56:45.234Z,2.00
2022-09-24T10:59:38.145Z,1.90
2022-09-24T11:02:13.813Z,1.85
2022-09-24T11:05:21.806Z,2.53
2022-09-24T11:08:01.865Z,2.30
2022-09-24T11:10:51.657Z,2.35
2022-09-24T11:13:34.644Z,2.10
2022-09-24T11:16:23.706Z,1.63
2022-09-24T11:19:07.672Z,1.50
2022-09-24T11:22:05.293Z,1.50
2022-09-24T11:24:50.789Z,1.77
2022-09-24T11:27:29.267Z,4.18
2022-09-24T11:30:09.610Z,2.88
2022-09-24T11:33:02.624Z,2.30
2022-09-24T11:35:50.853Z,2.25
2022-09-24T11:38:37.157Z,1.70
2022-09-24T11:41:12.853Z,1.88
2022-09-24T11:44:04.487Z,1.95
2022-09-24T11:46:39.102Z,1.73
2022-09-24T11:49:14.854Z,1.63
2022-09-24T11:51:55.871Z,1.48
2022-09-24T11:54:25.455Z,1.80
2022-09-24T11:57:08.996Z,1.80
2022-09-24T11:59:41.267Z,1.80
2022-09-24T12:02:23.837Z,1.83
2022-09-24T12:05:06.940Z,1.40
2022-09-24T12:08:00.209Z,1.90
2022-09-24T12:10:57.179Z,1.83
2022-09-24T12:13:41.110Z,1.75
2022-09-24T12:16:19.531Z,1.65
2022-09-24T12:19:03.752Z,1.60
2022-09-24T12:21:34.402Z,1.67
2022-09-24T12:24:06.850Z,1.75
2022-09-24T12:26:37.365Z,1.85
2022-09-24T12:29:35.234Z,1.65
2022-09-24T12:32:29.386Z,2.17
2022-09-24T12:35:05.367Z,1.95
2022-09-24T12:37:38.598Z,2.35
2022-09-24T12:40:36.536Z,1.98
2022-09-24T12:43:12.044Z,1.35
2022-09-24T12:45:38.653Z,1.50
2022-09-24T12:48:05.270Z,1.60
2022-09-24T12:50:35.134Z,2.00
2022-09-24T12:53:01.976Z,1.40
2022-09-24T12:55:31.792Z,1.40
2022-09-24T12:58:01.995Z,1.40
2022-09-24T13:00:41.216Z,1.35
2022-09-24T13:03:30.450Z,1.90
2022-09-24T13:06:00.049Z,1.50
2022-09-24T13:08:36.446Z,1.60
2022-09-24T13:11:22.137Z,1.85
2022-09-24T13:14:18.092Z,1.90
2022-09-24T13:16:53.294Z,1.98
2022-09-24T13:19:55.369Z,1.92
2022-09-24T13:22:34.732Z,2.05
2022-09-24T13:25:23.395Z,2.17
2022-09-24T13:28:02.818Z,1.92
2022-09-24T13:30:29.269Z,1.73
2022-09-24T13:33:19.200Z,2.03
2022-09-24T13:36:03.299Z,1.60
2022-09-24T13:38:44.628Z,2.10
2022-09-24T13:41:33.194Z,1.90
2022-09-24T13:44:04.463Z,1.95
2022-09-24T13:46:32.137Z,2.13
2022-09-24T13:49:06.390Z,1.92
2022-09-24T13:51:38.146Z,1.70
2022-09-24T13:54:23.465Z,1.90
2022-09-24T13:57:18.287Z,2.03
2022-09-24T13:59:44.756Z,1.65
2022-09-24T14:02:26.337Z,2.03
2022-09-24T14:04:59.274Z,2.30
2022-09-24T14:07:27.456Z,1.80
2022-09-24T14:10:07.239Z,1.55
2022-09-24T14:12:33.862Z,1.48
2022-09-24T14:15:00.387Z,1.95
2022-09-24T14:17:26.864Z,2.17
2022-09-24T14:19:57.241Z,2.20
2022-09-24T14:22:29.137Z,1.88
2022-09-24T14:25:01.606Z,1.73
2022-09-24T14:27:30.168Z,1.88
2022-09-24T14:30:01.303Z,2.00
2022-09-24T14:32:34.531Z,1.60
2022-09-24T14:35:05.754Z,1.73
2022-09-24T14:37:41.253Z,1.30
2022-09-24T14:40:14.246Z,1.55
2022-09-24T14:42:45.806Z,1.90
2022-09-24T14:45:29.418Z,1.30
2022-09-24T14:48:16.380Z,1.50
2022-09-24T14:50:43.034Z,1.80
2022-09-24T14:53:21.433Z,1.90
2022-09-24T14:55:49.707Z,1.50
2022-09-24T14:58:28.354Z,1.80
2022-09-24T15:01:01.765Z,1.48
2022-09-24T15:03:47.534Z,1.83
2022-09-24T15:06:27.806Z,1.42
2022-09-24T15:09:06.473Z,1.40
2022-09-24T15:11:37.871Z,1.77
2022-09-24T15:14:24.935Z,1.60
2022-09-24T15:16:52.691Z,1.77
2022-09-24T15:19:20.258Z,1.58
2022-09-24T15:21:48.567Z,1.75
2022-09-24T15:24:16.515Z,1.80
2022-09-24T15:26:46.688Z,1.65
2022-09-24T15:29:24.278Z,1.77
2022-09-24T15:31:52.024Z,1.63
2022-09-24T15:34:20.524Z,1.92
2022-09-24T15:37:01.475Z,1.50
2022-09-24T15:39:28.610Z,1.65
2022-09-24T15:41:55.227Z,1.75
2022-09-24T15:44:31.292Z,1.70
2022-09-24T15:47:00.336Z,1.58
2022-09-24T15:49:27.237Z,1.63
2022-09-24T15:51:59.900Z,1.70
2022-09-24T15:54:26.451Z,1.50
2022-09-24T15:56:53.121Z,1.60
2022-09-24T15:59:21.365Z,1.80
2022-09-24T16:01:49.869Z,1.90
2022-09-24T16:04:17.237Z,1.50
2022-09-24T16:06:43.839Z,1.48
2022-09-24T16:09:10.398Z,1.50
2022-09-24T16:11:36.963Z,1.55
2022-09-24T16:14:03.425Z,1.00
2022-09-24T16:16:29.938Z,1.55
2022-09-24T16:18:56.532Z,1.33
2022-09-24T16:21:22.954Z,1.10
2022-09-24T16:23:56.732Z,1.30
2022-09-24T16:26:23.995Z,1.20
2022-09-24T16:28:51.680Z,1.40
2022-09-24T16:31:19.227Z,1.30
2022-09-24T16:33:46.683Z,1.17
2022-09-24T16:36:13.190Z,1.35
2022-09-24T16:38:40.061Z,1.42
2022-09-24T16:41:07.332Z,1.25
2022-09-24T16:43:34.107Z,1.75
2022-09-24T16:46:06.259Z,1.60
2022-09-24T16:48:33.137Z,1.30
2022-09-24T16:51:05.445Z,1.60
2022-09-24T16:53:34.186Z,1.55
2022-09-24T16:56:05.472Z,2.13
2022-09-24T16:58:32.872Z,2.22
2022-09-24T17:00:59.339Z,2.17
2022-09-24T17:03:25.804Z,2.30
2022-09-24T17:05:52.281Z,2.13
2022-09-24T17:08:18.813Z,2.60
2022-09-24T17:10:55.874Z,2.80
2022-09-24T17:13:24.684Z,1.95
2022-09-24T17:15:51.245Z,2.40
2022-09-24T17:18:17.789Z,2.22
2022-09-24T17:20:44.294Z,2.10
2022-09-24T17:23:10.729Z,1.90
2022-09-24T17:25:37.159Z,1.80
2022-09-24T17:28:03.988Z,1.70
2022-09-24T17:30:30.453Z,1.50
2022-09-24T17:32:56.901Z,1.95
2022-09-24T17:35:23.753Z,1.88
2022-09-24T17:37:50.264Z,1.90
2022-09-24T17:40:23.003Z,1.70
2022-09-24T17:45:21.517Z,1.52
2022-09-24T17:47:57.942Z,1.45
2022-09-24T17:50:24.706Z,1.50
2022-09-24T17:52:51.171Z,1.35
2022-09-24T17:55:17.710Z,1.48
2022-09-24T17:57:44.136Z,1.48
2022-09-24T18:00:11.041Z,1.10
2022-09-24T18:02:38.257Z,1.20
2022-09-24T18:05:05.046Z,1.13
2022-09-24T18:07:31.543Z,1.40
2022-09-24T18:09:58.056Z,1.20
2022-09-24T18:12:24.541Z,1.25
2022-09-24T18:14:51.085Z,1.45
2022-09-24T18:17:17.554Z,1.42
2022-09-24T18:19:44.010Z,1.17
2022-09-24T18:22:11.239Z,1.40
2022-09-24T18:24:37.875Z,1.63
2022-09-24T18:27:05.195Z,1.35
2022-09-24T18:29:31.736Z,1.40
2022-09-24T18:31:58.199Z,1.20
2022-09-24T18:34:25.158Z,1.67
2022-09-24T18:36:51.646Z,1.70
2022-09-24T18:39:24.653Z,1.83
2022-09-24T18:41:51.911Z,1.85
2022-09-24T18:44:19.596Z,1.73
2022-09-24T18:46:46.610Z,2.17
2022-09-24T18:49:13.176Z,2.33
2022-09-24T18:51:39.703Z,2.40
2022-09-24T18:54:11.901Z,1.80
2022-09-24T18:56:38.616Z,1.73
2022-09-24T18:59:09.938Z,1.73
2022-09-24T19:01:37.936Z,1.90
2022-09-24T19:04:05.657Z,2.20
2022-09-24T19:06:35.128Z,2.10
2022-09-24T19:09:01.897Z,1.65
2022-09-24T19:11:30.292Z,1.70
2022-09-24T19:13:57.874Z,1.58
2022-09-24T19:16:25.378Z,2.03
2022-09-24T19:18:53.193Z,1.90
2022-09-24T19:21:20.875Z,1.60
2022-09-24T19:23:49.689Z,1.65
2022-09-24T19:26:18.838Z,1.50
2022-09-24T19:28:46.144Z,1.77
2022-09-24T19:31:16.352Z,2.15
2022-09-24T19:33:44.086Z,1.85
2022-09-24T19:36:11.370Z,2.28
2022-09-24T19:38:38.440Z,1.70
2022-09-24T19:41:06.889Z,2.08
2022-09-24T19:43:34.417Z,1.83
2022-09-24T19:46:07.302Z,1.52
2022-09-24T19:48:39.059Z,1.50
2022-09-24T19:51:08.906Z,2.10
2022-09-24T19:53:36.287Z,1.50
2022-09-24T19:56:10.609Z,1.90
2022-09-24T19:58:37.304Z,1.60
2022-09-24T20:01:06.207Z,2.30
2022-09-24T20:03:34.032Z,2.25
2022-09-24T20:06:00.706Z,2.97
2022-09-24T20:08:27.263Z,3.53
2022-09-24T20:10:54.070Z,2.78
2022-09-24T20:13:20.765Z,3.03
2022-09-24T20:15:47.329Z,2.40
2022-09-24T20:18:13.861Z,2.05
2022-09-24T20:20:40.355Z,1.60
2022-09-24T20:23:08.389Z,1.70
2022-09-24T20:25:53.915Z,1.95
2022-09-24T20:28:20.810Z,2.40
2022-09-24T20:30:49.964Z,2.70
2022-09-24T20:33:17.654Z,2.25
2022-09-24T20:35:44.192Z,1.80
2022-09-24T20:38:12.027Z,1.80
2022-09-24T20:40:40.176Z,1.50
2022-09-24T20:43:07.016Z,1.20
2022-09-24T20:45:33.448Z,1.33
2022-09-24T20:48:00.508Z,1.88
2022-09-24T20:50:26.996Z,2.13
2022-09-24T20:52:53.439Z,2.55
2022-09-24T20:55:19.873Z,2.15
2022-09-24T20:57:46.498Z,1.85
2022-09-24T21:00:14.958Z,1.80
2022-09-24T21:02:41.900Z,1.70
2022-09-24T21:05:10.367Z,1.45
2022-09-24T21:07:40.369Z,1.20
2022-09-24T21:10:10.313Z,1.02
2022-09-24T21:12:38.038Z,1.00
2022-09-24T21:15:07.025Z,1.00
2022-09-24T21:17:33.751Z,1.10
2022-09-24T21:20:00.508Z,1.15
2022-09-24T21:22:27.094Z,1.33
2022-09-24T21:24:53.631Z,1.13
2022-09-24T21:27:20.152Z,1.23
2022-09-24T21:29:47.421Z,1.20
2022-09-24T21:32:17.340Z,1.13
2022-09-24T21:34:45.042Z,1.50
2022-09-24T21:37:14.328Z,1.40
2022-09-24T21:39:43.049Z,1.40
2022-09-24T21:42:09.664Z,1.67
2022-09-24T21:44:36.352Z,1.55
2022-09-24T21:47:03.334Z,1.10
2022-09-24T21:49:36.349Z,2.20
2022-09-24T21:52:06.683Z,3.22
2022-09-24T21:54:34.226Z,2.40
2022-09-24T21:57:00.850Z,2.33
2022-09-24T21:59:45.913Z,1.90
2022-09-24T22:02:12.799Z,2.20
2022-09-24T22:04:39.665Z,3.22
2022-09-24T22:07:06.824Z,3.22
2022-09-24T22:09:33.623Z,2.20
2022-09-24T22:12:01.558Z,2.40
2022-09-24T22:14:28.362Z,3.38
2022-09-24T22:16:56.134Z,2.90
2022-09-24T22:19:22.879Z,3.15
2022-09-24T22:21:49.470Z,4.05
2022-09-24T22:24:16.103Z,3.30
2022-09-24T22:26:42.649Z,3.58
2022-09-24T22:29:09.203Z,3.30
2022-09-24T22:31:35.737Z,3.00
2022-09-24T22:34:20.897Z,3.28
2022-09-24T22:36:47.966Z,3.45
2022-09-24T22:39:15.423Z,3.28
2022-09-24T22:41:43.203Z,2.38
2022-09-24T22:44:11.774Z,2.97
2022-09-24T22:46:39.486Z,2.75
2022-09-24T22:49:06.672Z,2.40
2022-09-24T22:51:33.862Z,1.92
2022-09-24T22:54:00.540Z,1.70
2022-09-24T22:56:27.849Z,2.45
2022-09-24T22:58:57.205Z,1.58
2022-09-24T23:01:27.726Z,1.20
2022-09-24T23:03:55.840Z,2.17
2022-09-24T23:06:22.773Z,2.78
2022-09-24T23:08:51.275Z,2.33
2022-09-24T23:11:20.262Z,2.60
2022-09-24T23:13:52.545Z,2.40
2022-09-24T23:16:28.937Z,2.30
2022-09-24T23:18:58.166Z,1.98
2022-09-24T23:21:26.918Z,1.85
2022-09-24T23:23:59.389Z,1.48
2022-09-24T23:26:26.912Z,1.27
2022-09-24T23:28:55.221Z,1.10
2022-09-24T23:31:34.117Z,1.00
2022-09-24T23:34:01.246Z,0.90
2022-09-24T23:36:30.954Z,0.90
2022-09-24T23:38:59.165Z,0.80
2022-09-24T23:41:26.061Z,0.90
2022-09-24T23:43:52.736Z,0.93
2022-09-24T23:46:19.336Z,0.90
2022-09-24T23:48:45.867Z,0.90
2022-09-24T23:51:12.376Z,1.15
2022-09-24T23:53:38.990Z,1.20
2022-09-24T23:56:06.581Z,0.90
2022-09-24T23:58:33.135Z,0.80
